Ebisu Maru — JD3260 — position and weather

sailwx.info

Track history (hours):
 
Tides and Currents Weather Stations Pressure Air Temp Water Temp Dewpoint Dewpoint Depression Visibility Wind Speed Wind Dir Waves Ship Positions

Ebisu Maru

Last reported at 2018-Feb-20 22:29 UTC. Time now 2018-Feb-20 23:00 UTC.
Position N 33°36' E 130°23'.

Length 73 m; draft 4.9 m.

Type: Cargo ship. MMSI: 431003062.

Date/timePositionNaut miles runAvg speedWind from/ knotsBaromVisibWave heightAir tempDewpointWater temp
2018-Feb-20 22:29N 33°36' E 130°23'0 0.0
2018-Feb-20 21:59N 33°36' E 130°23'0 0.0
2018-Feb-20 21:29N 33°36' E 130°23'0 0.0
2018-Feb-20 20:59N 33°36' E 130°23'0 0.0
2018-Feb-20 20:29N 33°36' E 130°23'0 0.0
2018-Feb-20 19:59N 33°36' E 130°23'0 0.0
2018-Feb-20 19:29N 33°36' E 130°23'0 0.0
2018-Feb-20 18:59N 33°36' E 130°23'0 0.0
2018-Feb-20 18:29N 33°36' E 130°23'0 0.0
2018-Feb-20 17:59N 33°36' E 130°23'0 0.0
2018-Feb-20 17:29N 33°36' E 130°23'0 0.0
2018-Feb-20 16:59N 33°36' E 130°23'0 0.0
2018-Feb-20 16:29N 33°36' E 130°23'0 0.0
2018-Feb-20 15:59N 33°36' E 130°23'2 4.2
2018-Feb-20 15:31N 33°37' E 130°21'511.0
2018-Feb-20 15:01N 33°41' E 130°16'510.4
2018-Feb-20 14:31N 33°46' E 130°19'611.5
2018-Feb-20 14:01N 33°50' E 130°23'611.5
2018-Feb-20 13:30N 33°54' E 130°28'511.1
2018-Feb-20 13:01N 33°56' E 130°34'611.5
2018-Feb-20 12:31N 33°57' E 130°41'611.5
2018-Feb-20 12:01N 33°58' E 130°48'510.1
2018-Feb-20 11:30N 33°56' E 130°53'3 6.1
2018-Feb-20 11:01N 33°57' E 130°57'4 7.0
2018-Feb-20 10:30N 33°59' E 131°00'510.3
2018-Feb-20 10:01N 33°56' E 131°05'510.9
2018-Feb-20 09:31N 33°53' E 131°11'510.6
2018-Feb-20 09:01N 33°52' E 131°17'510.5
2018-Feb-20 08:30N 33°52' E 131°24'510.6
2018-Feb-20 08:01N 33°51' E 131°30'510.5
2018-Feb-20 07:30N 33°49' E 131°36'510.2
2018-Feb-20 07:00N 33°48' E 131°42'1610.5
2018-Feb-20 05:28N 33°46' E 132°01'120 9.8
2018-Feb-19 17:15N 34°25' E 134°18'310.8
2018-Feb-19 17:00N 34°25' E 134°21'511.2
2018-Feb-19 16:30N 34°27' E 134°27'611.4
2018-Feb-19 16:00N 34°29' E 134°34'611.5
2018-Feb-19 15:30N 34°31' E 134°40'611.9
2018-Feb-19 15:01N 34°33' E 134°47'713.0
2018-Feb-19 14:30N 34°36' E 134°54'612.5
2018-Feb-19 14:00N 34°37' E 135°02'611.2
2018-Feb-19 13:30N 34°36' E 135°09'611.9
2018-Feb-19 13:01N 34°37' E 135°16'611.1
2018-Feb-19 12:31N 34°38' E 135°22'4 8.9
2018-Feb-19 12:00N 34°38' E 135°28'0 0.1
2018-Feb-19 11:30N 34°38' E 135°28'0 0.0
2018-Feb-19 11:00N 34°38' E 135°28'0 0.0
2018-Feb-19 10:30N 34°38' E 135°28'0 0.0
2018-Feb-19 10:00N 34°38' E 135°28'0 0.0
2018-Feb-19 09:30N 34°38' E 135°28'0 0.0
2018-Feb-19 09:00N 34°38' E 135°28'0 0.0
2018-Feb-19 08:30N 34°38' E 135°28'0 0.0
2018-Feb-19 08:00N 34°38' E 135°28'0 0.0
2018-Feb-19 07:30N 34°38' E 135°28'0 0.0
2018-Feb-19 07:00N 34°38' E 135°28'0 0.0
2018-Feb-19 06:30N 34°38' E 135°28'0 0.0
2018-Feb-19 06:00N 34°38' E 135°28'0 0.0
2018-Feb-19 05:30N 34°38' E 135°28'0 0.0
2018-Feb-19 05:00N 34°38' E 135°28'0 0.0
2018-Feb-19 04:27N 34°38' E 135°28'0 0.0
2018-Feb-19 04:00N 34°38' E 135°28'0 0.0
2018-Feb-19 03:30N 34°38' E 135°28'0 0.0
2018-Feb-19 03:00N 34°38' E 135°28'0 0.0
2018-Feb-19 02:30N 34°38' E 135°28'0 0.0
2018-Feb-19 02:00N 34°38' E 135°28'0 0.0
2018-Feb-19 01:30N 34°38' E 135°28'0 0.0
2018-Feb-19 01:00N 34°38' E 135°28'0 0.0
2018-Feb-19 00:30N 34°38' E 135°28'0 0.0
2018-Feb-19 00:00N 34°38' E 135°28'0 0.0
2018-Feb-18 23:30N 34°38' E 135°28'0 0.0
2018-Feb-18 23:00N 34°38' E 135°28'0 0.0
2018-Feb-18 22:30N 34°38' E 135°28'0 0.0
2018-Feb-18 22:00N 34°38' E 135°28'0 0.0
2018-Feb-18 21:30N 34°38' E 135°28'0 0.0
2018-Feb-18 21:00N 34°38' E 135°28'0 0.0
2018-Feb-18 20:30N 34°38' E 135°28'0 0.0
2018-Feb-18 20:00N 34°38' E 135°28'0 0.0
2018-Feb-18 19:30N 34°38' E 135°28'0 0.0
2018-Feb-18 19:00N 34°38' E 135°28'0 0.0
2018-Feb-18 18:30N 34°38' E 135°28'0 0.0
2018-Feb-18 18:00N 34°38' E 135°28'0 0.0
2018-Feb-18 17:30N 34°38' E 135°28'0 0.0
2018-Feb-18 17:00N 34°38' E 135°28'0 0.0
2018-Feb-18 16:30N 34°38' E 135°28'0 0.0
2018-Feb-18 16:00N 34°38' E 135°28'0 0.0
2018-Feb-18 15:30N 34°38' E 135°28'0 0.0
2018-Feb-18 15:00N 34°38' E 135°28'0 0.0
2018-Feb-18 14:30N 34°38' E 135°28'0 0.0
2018-Feb-18 14:00N 34°38' E 135°28'0 0.0
2018-Feb-18 13:30N 34°38' E 135°28'0 0.0
2018-Feb-18 13:00N 34°38' E 135°28'0 0.0
2018-Feb-18 12:30N 34°38' E 135°28'0 0.0
2018-Feb-18 12:00N 34°38' E 135°28'0 0.0
2018-Feb-18 11:30N 34°38' E 135°28'0 0.0
2018-Feb-18 11:00N 34°38' E 135°28'0 0.0
2018-Feb-18 10:30N 34°38' E 135°28'0 0.0
2018-Feb-18 10:00N 34°38' E 135°28'0 0.0
2018-Feb-18 09:30N 34°38' E 135°28'0 0.5
2018-Feb-18 09:00N 34°38' E 135°27'0 0.4
2018-Feb-18 08:29N 34°38' E 135°27'0 0.0
2018-Feb-18 07:59N 34°38' E 135°27'0 0.0
2018-Feb-18 07:29N 34°38' E 135°27'0 0.0
2018-Feb-18 06:59N 34°38' E 135°27'0 0.0
2018-Feb-18 06:29N 34°38' E 135°27'0 0.0
2018-Feb-18 05:59N 34°38' E 135°27'0 0.0
2018-Feb-18 05:29N 34°38' E 135°27'0 0.0
2018-Feb-18 04:59N 34°38' E 135°27'0 0.0
2018-Feb-18 04:29N 34°38' E 135°27'0 0.0
2018-Feb-18 03:59N 34°38' E 135°27'1 1.2
2018-Feb-18 03:28N 34°38' E 135°27'0 0.0
2018-Feb-18 02:58N 34°38' E 135°27'0 0.0
2018-Feb-18 02:28N 34°38' E 135°27'0 0.1
2018-Feb-18 02:00N 34°38' E 135°27'4 8.3
2018-Feb-18 01:30N 34°37' E 135°22'511.0
2018-Feb-18 01:00N 34°36' E 135°16'611.2
2018-Feb-18 00:30N 34°34' E 135°09'510.2
2018-Feb-18 00:00N 34°36' E 135°03'3 6.6
2018-Feb-17 23:30N 34°37' E 134°59'5 8.8
2018-Feb-17 22:59N 34°35' E 134°54'5 9.4
2018-Feb-17 22:30N 34°33' E 134°49'510.7
2018-Feb-17 22:00N 34°31' E 134°43'610.9
2018-Feb-17 21:30N 34°29' E 134°37'511.3
2018-Feb-17 21:00N 34°27' E 134°31'9311.5
2018-Feb-17 12:59N 34°03' E 132°43'1511.9
2018-Feb-17 11:40N 33°54' E 132°28'512.5
2018-Feb-17 11:17N 33°51' E 132°23'412.2
2018-Feb-17 10:57N 33°50' E 132°19'612.1
2018-Feb-17 10:28N 33°49' E 132°12'611.8
2018-Feb-17 09:57N 33°46' E 132°05'1511.0
2018-Feb-17 08:37N 33°47' E 131°48'111.1
2018-Feb-17 08:30N 33°47' E 131°46'611.4
2018-Feb-17 08:00N 33°48' E 131°39'611.6
2018-Feb-17 07:30N 33°49' E 131°33'611.9
2018-Feb-17 07:00N 33°51' E 131°26'612.2
2018-Feb-17 06:30N 33°52' E 131°18'511.0
2018-Feb-17 06:00N 33°55' E 131°13'3 5.5
2018-Feb-17 05:30N 33°57' E 131°14'0 0.0
2018-Feb-17 05:00N 33°57' E 131°14'0 0.0
2018-Feb-17 04:21N 33°57' E 131°14'0 0.0
2018-Feb-17 03:57N 33°57' E 131°14'0 0.0
2018-Feb-17 03:30N 33°57' E 131°14'0 0.0
2018-Feb-17 03:00N 33°57' E 131°14'0 0.0
2018-Feb-17 02:30N 33°57' E 131°14'0 0.0
2018-Feb-17 02:00N 33°57' E 131°14'0 0.0
2018-Feb-17 01:30N 33°57' E 131°14'0 0.0
2018-Feb-17 01:00N 33°57' E 131°14'0 0.0
2018-Feb-17 00:30N 33°57' E 131°14'0 0.0
2018-Feb-17 00:00N 33°57' E 131°14'0 0.0
2018-Feb-16 23:30N 33°57' E 131°14'0 0.0
2018-Feb-16 23:00N 33°57' E 131°14'0 0.0
2018-Feb-16 22:30N 33°57' E 131°14'0 0.0
2018-Feb-16 22:00N 33°57' E 131°14'2 4.0
2018-Feb-16 21:29N 33°55' E 131°13'0 0.1
2018-Feb-16 20:59N 33°55' E 131°13'0 0.0
2018-Feb-16 20:29N 33°55' E 131°13'0 0.1
2018-Feb-16 19:56N 33°55' E 131°13'0 0.1
2018-Feb-16 19:29N 33°55' E 131°13'0 0.1
2018-Feb-16 18:59N 33°55' E 131°13'0 0.1
2018-Feb-16 18:29N 33°55' E 131°13'0 0.0
2018-Feb-16 17:59N 33°55' E 131°13'0 0.1
2018-Feb-16 17:23N 33°55' E 131°13'0 0.1
2018-Feb-16 16:56N 33°55' E 131°13'0 0.1
2018-Feb-16 16:30N 33°55' E 131°13'4 7.6
2018-Feb-16 16:00N 33°55' E 131°08'612.7
2018-Feb-16 15:30N 33°58' E 131°02'510.2
2018-Feb-16 15:00N 33°56' E 130°56'4 7.1
2018-Feb-16 14:30N 33°56' E 130°52'611.5
2018-Feb-16 14:00N 33°58' E 130°45'612.6
2018-Feb-16 13:30N 33°57' E 130°38'612.6
2018-Feb-16 13:00N 33°56' E 130°30'611.7
2018-Feb-16 12:30N 33°51' E 130°26'612.8
2018-Feb-16 12:00N 33°47' E 130°21'612.3
2018-Feb-16 11:29N 33°42' E 130°16'611.6
2018-Feb-16 11:00N 33°38' E 130°21'2 4.7
2018-Feb-16 10:29N 33°36' E 130°23'0 0.0
2018-Feb-16 09:59N 33°36' E 130°23'0 0.0
2018-Feb-16 09:29N 33°36' E 130°23'0 0.0
2018-Feb-16 08:59N 33°36' E 130°23'0 0.0
2018-Feb-16 08:28N 33°36' E 130°23'0 0.0
2018-Feb-16 07:56N 33°36' E 130°23'0 0.0
2018-Feb-16 07:29N 33°36' E 130°23'0 0.0
2018-Feb-16 06:59N 33°36' E 130°23'0 0.0
2018-Feb-16 06:29N 33°36' E 130°23'0 0.0
2018-Feb-16 05:59N 33°36' E 130°23'0 0.0
2018-Feb-16 05:29N 33°36' E 130°23'0 0.0
2018-Feb-16 04:53N 33°36' E 130°23'0 0.0
2018-Feb-16 04:28N 33°36' E 130°23'0 0.0
2018-Feb-16 03:58N 33°36' E 130°23'0 0.0
2018-Feb-16 03:28N 33°36' E 130°23'0 0.0
2018-Feb-16 02:58N 33°36' E 130°23'0 0.0
2018-Feb-16 02:28N 33°36' E 130°23'0 0.0
2018-Feb-16 01:58N 33°36' E 130°23'0 0.0
2018-Feb-16 01:28N 33°36' E 130°23'0 0.0
2018-Feb-16 00:58N 33°36' E 130°23'0 0.0
2018-Feb-16 00:28N 33°36' E 130°23'0 0.0
2018-Feb-15 23:58N 33°36' E 130°23'0 0.0
2018-Feb-15 23:28N 33°36' E 130°23'0 0.0
2018-Feb-15 22:58N 33°36' E 130°23'0 0.0
2018-Feb-15 22:28N 33°36' E 130°23'0 0.0
2018-Feb-15 21:58N 33°36' E 130°23'0 0.0
2018-Feb-15 21:25N 33°36' E 130°23'0 0.0
2018-Feb-15 20:59N 33°36' E 130°23'0 0.0
2018-Feb-15 20:29N 33°36' E 130°23'0 0.0
2018-Feb-15 19:58N 33°36' E 130°23'0 0.0
2018-Feb-15 19:28N 33°36' E 130°23'0 0.0
2018-Feb-15 18:58N 33°36' E 130°23'0 0.0
2018-Feb-15 18:28N 33°36' E 130°23'0 0.0
2018-Feb-15 18:01N 33°36' E 130°23'3 6.6
2018-Feb-15 17:31N 33°38' E 130°20'510.2
2018-Feb-15 17:00N 33°42' E 130°16'611.2
2018-Feb-15 16:30N 33°46' E 130°20'611.5
2018-Feb-15 16:00N 33°51' E 130°24'511.0
2018-Feb-15 15:31N 33°55' E 130°29'611.4
2018-Feb-15 15:01N 33°57' E 130°35'611.4
2018-Feb-15 14:30N 33°58' E 130°42'611.4
2018-Feb-15 14:00N 33°58' E 130°49'611.8
2018-Feb-15 13:31N 33°54' E 130°55'612.3
2018-Feb-15 13:01N 33°59' E 130°60'611.4
2018-Feb-15 12:30N 33°56' E 131°06'611.6
2018-Feb-15 12:00N 33°53' E 131°12'611.8
2018-Feb-15 11:31N 33°52' E 131°19'611.7
2018-Feb-15 11:00N 33°51' E 131°26'611.6
2018-Feb-15 10:30N 33°50' E 131°33'611.7
2018-Feb-15 10:00N 33°49' E 131°40'711.7
2018-Feb-15 09:22N 33°47' E 131°48'1111.2
2018-Feb-15 08:24N 33°46' E 132°01'1111.4
2018-Feb-15 07:25N 33°50' E 132°14'1611.3
2018-Feb-15 05:57N 33°57' E 132°32'612.4
2018-Feb-15 05:30N 34°01' E 132°37'8911.5
2018-Feb-14 21:46N 34°25' E 134°20'312.2
2018-Feb-14 21:30N 34°26' E 134°23'612.0
2018-Feb-14 21:00N 34°28' E 134°30'611.8
2018-Feb-14 20:30N 34°31' E 134°37'611.7
2018-Feb-14 20:00N 34°33' E 134°44'611.5
2018-Feb-14 19:30N 34°35' E 134°50'611.3
2018-Feb-14 19:00N 34°37' E 134°56'5 9.2
2018-Feb-14 18:30N 34°37' E 135°02'5 9.9
2018-Feb-14 18:00N 34°37' E 135°08'611.3
2018-Feb-14 17:30N 34°37' E 135°15'611.5
2018-Feb-14 17:00N 34°39' E 135°22'5 9.5
2018-Feb-14 16:30N 34°38' E 135°27'0 0.7
2018-Feb-14 15:59N 34°38' E 135°28'0 0.0
2018-Feb-14 15:29N 34°38' E 135°28'0 0.0
2018-Feb-14 14:56N 34°38' E 135°28'0 0.0
2018-Feb-14 14:29N 34°38' E 135°28'0 0.0
2018-Feb-14 13:59N 34°38' E 135°28'0 0.0
2018-Feb-14 13:29N 34°38' E 135°28'0 0.0
2018-Feb-14 12:59N 34°38' E 135°28'0 0.0
2018-Feb-14 12:29N 34°38' E 135°28'0 0.0
2018-Feb-14 11:59N 34°38' E 135°28'0 0.0
2018-Feb-14 11:29N 34°38' E 135°28'0 0.0
2018-Feb-14 10:53N 34°38' E 135°28'0 0.0
2018-Feb-14 10:29N 34°38' E 135°28'0 0.0
2018-Feb-14 09:59N 34°38' E 135°28'0 0.0
2018-Feb-14 09:29N 34°38' E 135°28'0 0.0
2018-Feb-14 08:59N 34°38' E 135°28'0 0.0
2018-Feb-14 08:29N 34°38' E 135°28'0 0.0
2018-Feb-14 07:59N 34°38' E 135°28'0 0.0
2018-Feb-14 07:29N 34°38' E 135°28'0 0.0
2018-Feb-14 06:59N 34°38' E 135°28'0 0.0
2018-Feb-14 06:29N 34°38' E 135°28'0 0.0
2018-Feb-14 05:59N 34°38' E 135°28'0 0.0
2018-Feb-14 05:29N 34°38' E 135°28'0 0.0
2018-Feb-14 04:59N 34°38' E 135°28'0 0.0
2018-Feb-14 04:29N 34°38' E 135°28'0 0.0
2018-Feb-14 03:59N 34°38' E 135°28'0 0.0
2018-Feb-14 03:29N 34°38' E 135°28'0 0.0
2018-Feb-14 02:59N 34°38' E 135°28'0 0.3
2018-Feb-14 02:30N 34°38' E 135°27'4 8.5
2018-Feb-14 02:00N 34°38' E 135°22'612.1
2018-Feb-14 01:30N 34°33' E 135°18'612.4
2018-Feb-14 01:00N 34°28' E 135°13'612.5
2018-Feb-14 00:31N 34°23' E 135°08'612.2
2018-Feb-14 00:00N 34°18' E 135°04'612.2
2018-Feb-13 23:30N 34°12' E 135°03'612.5
2018-Feb-13 23:00N 34°06' E 135°02'612.4
2018-Feb-13 22:30N 33°60' E 135°02'101 7.8
2018-Feb-13 09:32N 34°36' E 136°57'312.7
2018-Feb-13 09:19N 34°37' E 136°54'412.6
2018-Feb-13 09:00N 34°40' E 136°50'612.5
2018-Feb-13 08:30N 34°45' E 136°47'612.3
2018-Feb-13 08:01N 34°51' E 136°46'611.8
2018-Feb-13 07:30N 34°57' E 136°47'611.9
2018-Feb-13 07:00N 35°02' E 136°51'2 3.3
2018-Feb-13 06:30N 35°04' E 136°52'0 0.0
2018-Feb-13 05:57N 35°04' E 136°52'0 0.0
2018-Feb-13 05:30N 35°04' E 136°52'0 0.0
2018-Feb-13 05:00N 35°04' E 136°52'0 0.1
2018-Feb-13 04:30N 35°04' E 136°52'0 0.1
2018-Feb-13 04:00N 35°04' E 136°52'0 0.1
2018-Feb-13 03:30N 35°04' E 136°52'0 0.1
2018-Feb-13 03:00N 35°04' E 136°52'0 0.0
2018-Feb-13 02:30N 35°04' E 136°52'0 0.0
2018-Feb-13 02:00N 35°04' E 136°52'2 3.9
2018-Feb-13 01:30N 35°02' E 136°51'2 3.6
2018-Feb-13 01:00N 35°03' E 136°50'0 0.0
2018-Feb-13 00:30N 35°03' E 136°50'0 0.0
2018-Feb-13 00:00N 35°03' E 136°50'0 0.0
2018-Feb-12 23:30N 35°03' E 136°50'0 0.0
2018-Feb-12 23:00N 35°03' E 136°50'1 1.3
2018-Feb-12 22:30N 35°03' E 136°50'3 5.9
2018-Feb-12 22:00N 35°05' E 136°52'0 0.3
2018-Feb-12 21:29N 35°05' E 136°52'0 0.0
2018-Feb-12 20:59N 35°05' E 136°52'0 0.0
2018-Feb-12 20:29N 35°05' E 136°52'0 0.0
2018-Feb-12 19:56N 35°05' E 136°52'0 0.0
2018-Feb-12 19:26N 35°05' E 136°52'0 0.0
2018-Feb-12 18:59N 35°05' E 136°52'0 0.0
2018-Feb-12 18:29N 35°05' E 136°52'0 0.0
2018-Feb-12 17:59N 35°05' E 136°52'0 0.0
2018-Feb-12 17:26N 35°05' E 136°52'0 0.0
2018-Feb-12 16:56N 35°05' E 136°52'0 0.0
2018-Feb-12 16:29N 35°05' E 136°52'0 0.0
2018-Feb-12 15:59N 35°05' E 136°52'0 0.0
2018-Feb-12 15:14N 35°05' E 136°52'0 0.0
2018-Feb-12 14:59N 35°05' E 136°52'0 0.0
2018-Feb-12 14:29N 35°05' E 136°52'0 0.0
2018-Feb-12 13:59N 35°05' E 136°52'0 0.0
2018-Feb-12 13:29N 35°05' E 136°52'0 0.0
2018-Feb-12 12:59N 35°05' E 136°52'0 0.0
2018-Feb-12 12:26N 35°05' E 136°52'0 0.0
2018-Feb-12 11:56N 35°05' E 136°52'0 0.0
2018-Feb-12 11:29N 35°05' E 136°52'0 0.0
2018-Feb-12 10:59N 35°05' E 136°52'0 0.0
2018-Feb-12 10:29N 35°05' E 136°52'0 0.0
2018-Feb-12 09:56N 35°05' E 136°52'0 0.0
2018-Feb-12 09:29N 35°05' E 136°52'0 0.0
2018-Feb-12 08:59N 35°05' E 136°52'0 0.0
2018-Feb-12 08:26N 35°05' E 136°52'0 0.0
2018-Feb-12 07:56N 35°05' E 136°52'0 0.0
2018-Feb-12 07:26N 35°05' E 136°52'0 0.0
2018-Feb-12 06:56N 35°05' E 136°52'0 0.0
2018-Feb-12 06:29N 35°05' E 136°52'0 0.0
2018-Feb-12 05:56N 35°05' E 136°52'0 0.0
2018-Feb-12 05:29N 35°05' E 136°52'0 0.0
2018-Feb-12 04:59N 35°05' E 136°52'0 0.0
2018-Feb-12 04:26N 35°05' E 136°52'0 0.0
2018-Feb-12 03:59N 35°05' E 136°52'0 0.0
2018-Feb-12 03:29N 35°05' E 136°52'0 0.0
2018-Feb-12 02:59N 35°05' E 136°52'0 0.0
2018-Feb-12 02:26N 35°05' E 136°52'0 0.0
2018-Feb-12 01:59N 35°05' E 136°52'0 0.0
2018-Feb-12 01:26N 35°05' E 136°52'0 0.0
2018-Feb-12 00:59N 35°05' E 136°52'0 0.0
2018-Feb-12 00:29N 35°05' E 136°52'0 0.0
2018-Feb-11 23:59N 35°05' E 136°52'0 0.0
2018-Feb-11 23:26N 35°05' E 136°52'0 0.1
2018-Feb-11 23:00N 35°05' E 136°52'1 1.1
2018-Feb-11 22:30N 35°05' E 136°53'0 0.0
2018-Feb-11 22:00N 35°05' E 136°53'0 0.1
2018-Feb-11 21:30N 35°05' E 136°53'0 0.1
2018-Feb-11 21:00N 35°05' E 136°52'4 8.9
2018-Feb-11 20:30N 35°01' E 136°50'611.1
2018-Feb-11 20:00N 34°56' E 136°47'510.7
2018-Feb-11 19:30N 34°50' E 136°48'610.6
2018-Feb-11 18:57N 34°45' E 136°50'102 7.5
2018-Feb-11 05:13N 33°49' E 135°06'512.5
2018-Feb-11 04:51N 33°53' E 135°02'412.3
2018-Feb-11 04:31N 33°57' E 135°01'612.2
2018-Feb-11 04:00N 34°03' E 135°00'612.2
2018-Feb-11 03:30N 34°09' E 134°59'612.4
2018-Feb-11 03:00N 34°15' E 134°58'611.7
2018-Feb-11 02:31N 34°21' E 134°60'612.2
2018-Feb-11 02:00N 34°27' E 135°01'612.0
2018-Feb-11 01:30N 34°33' E 135°03'510.3
2018-Feb-11 01:00N 34°37' E 134°59'611.2
2018-Feb-11 00:30N 34°38' E 134°53'5 9.7
2018-Feb-11 00:00N 34°42' E 134°50'0 0.2
2018-Feb-10 23:25N 34°42' E 134°50'0 0.0
2018-Feb-10 22:55N 34°42' E 134°50'  
Track history (hours):
 
Tides and Currents Weather Stations Pressure Air Temp Water Temp Dewpoint Dewpoint Depression Visibility Wind Speed Wind Dir Waves Ship Positions

Ebisu Maru

Last reported at 2018-Feb-20 22:29 UTC. Time now 2018-Feb-20 23:00 UTC.
Position N 33°36' E 130°23'.

Length 73 m; draft 4.9 m.

Type: Cargo ship. MMSI: 431003062.

Date/timePositionNaut miles runAvg speedWind from/ knotsBaromVisibWave heightAir tempDewpointWater temp
2018-Feb-20 22:29N 33°36' E 130°23'0 0.0
2018-Feb-20 21:59N 33°36' E 130°23'0 0.0
2018-Feb-20 21:29N 33°36' E 130°23'0 0.0
2018-Feb-20 20:59N 33°36' E 130°23'0 0.0
2018-Feb-20 20:29N 33°36' E 130°23'0 0.0
2018-Feb-20 19:59N 33°36' E 130°23'0 0.0
2018-Feb-20 19:29N 33°36' E 130°23'0 0.0
2018-Feb-20 18:59N 33°36' E 130°23'0 0.0
2018-Feb-20 18:29N 33°36' E 130°23'0 0.0
2018-Feb-20 17:59N 33°36' E 130°23'0 0.0
2018-Feb-20 17:29N 33°36' E 130°23'0 0.0
2018-Feb-20 16:59N 33°36' E 130°23'0 0.0
2018-Feb-20 16:29N 33°36' E 130°23'0 0.0
2018-Feb-20 15:59N 33°36' E 130°23'2 4.2
2018-Feb-20 15:31N 33°37' E 130°21'511.0
2018-Feb-20 15:01N 33°41' E 130°16'510.4
2018-Feb-20 14:31N 33°46' E 130°19'611.5
2018-Feb-20 14:01N 33°50' E 130°23'611.5
2018-Feb-20 13:30N 33°54' E 130°28'511.1
2018-Feb-20 13:01N 33°56' E 130°34'611.5
2018-Feb-20 12:31N 33°57' E 130°41'611.5
2018-Feb-20 12:01N 33°58' E 130°48'510.1
2018-Feb-20 11:30N 33°56' E 130°53'3 6.1
2018-Feb-20 11:01N 33°57' E 130°57'4 7.0
2018-Feb-20 10:30N 33°59' E 131°00'510.3
2018-Feb-20 10:01N 33°56' E 131°05'510.9
2018-Feb-20 09:31N 33°53' E 131°11'510.6
2018-Feb-20 09:01N 33°52' E 131°17'510.5
2018-Feb-20 08:30N 33°52' E 131°24'510.6
2018-Feb-20 08:01N 33°51' E 131°30'510.5
2018-Feb-20 07:30N 33°49' E 131°36'510.2
2018-Feb-20 07:00N 33°48' E 131°42'1610.5
2018-Feb-20 05:28N 33°46' E 132°01'120 9.8
2018-Feb-19 17:15N 34°25' E 134°18'310.8
2018-Feb-19 17:00N 34°25' E 134°21'511.2
2018-Feb-19 16:30N 34°27' E 134°27'611.4
2018-Feb-19 16:00N 34°29' E 134°34'611.5
2018-Feb-19 15:30N 34°31' E 134°40'611.9
2018-Feb-19 15:01N 34°33' E 134°47'713.0
2018-Feb-19 14:30N 34°36' E 134°54'612.5
2018-Feb-19 14:00N 34°37' E 135°02'611.2
2018-Feb-19 13:30N 34°36' E 135°09'611.9
2018-Feb-19 13:01N 34°37' E 135°16'611.1
2018-Feb-19 12:31N 34°38' E 135°22'4 8.9
2018-Feb-19 12:00N 34°38' E 135°28'0 0.1
2018-Feb-19 11:30N 34°38' E 135°28'0 0.0
2018-Feb-19 11:00N 34°38' E 135°28'0 0.0
2018-Feb-19 10:30N 34°38' E 135°28'0 0.0
2018-Feb-19 10:00N 34°38' E 135°28'0 0.0
2018-Feb-19 09:30N 34°38' E 135°28'0 0.0
2018-Feb-19 09:00N 34°38' E 135°28'0 0.0
2018-Feb-19 08:30N 34°38' E 135°28'0 0.0
2018-Feb-19 08:00N 34°38' E 135°28'0 0.0
2018-Feb-19 07:30N 34°38' E 135°28'0 0.0
2018-Feb-19 07:00N 34°38' E 135°28'0 0.0
2018-Feb-19 06:30N 34°38' E 135°28'0 0.0
2018-Feb-19 06:00N 34°38' E 135°28'0 0.0
2018-Feb-19 05:30N 34°38' E 135°28'0 0.0
2018-Feb-19 05:00N 34°38' E 135°28'0 0.0
2018-Feb-19 04:27N 34°38' E 135°28'0 0.0
2018-Feb-19 04:00N 34°38' E 135°28'0 0.0
2018-Feb-19 03:30N 34°38' E 135°28'0 0.0
2018-Feb-19 03:00N 34°38' E 135°28'0 0.0
2018-Feb-19 02:30N 34°38' E 135°28'0 0.0
2018-Feb-19 02:00N 34°38' E 135°28'0 0.0
2018-Feb-19 01:30N 34°38' E 135°28'0 0.0
2018-Feb-19 01:00N 34°38' E 135°28'0 0.0
2018-Feb-19 00:30N 34°38' E 135°28'0 0.0
2018-Feb-19 00:00N 34°38' E 135°28'0 0.0
2018-Feb-18 23:30N 34°38' E 135°28'0 0.0
2018-Feb-18 23:00N 34°38' E 135°28'0 0.0
2018-Feb-18 22:30N 34°38' E 135°28'0 0.0
2018-Feb-18 22:00N 34°38' E 135°28'0 0.0
2018-Feb-18 21:30N 34°38' E 135°28'0 0.0
2018-Feb-18 21:00N 34°38' E 135°28'0 0.0
2018-Feb-18 20:30N 34°38' E 135°28'0 0.0
2018-Feb-18 20:00N 34°38' E 135°28'0 0.0
2018-Feb-18 19:30N 34°38' E 135°28'0 0.0
2018-Feb-18 19:00N 34°38' E 135°28'0 0.0
2018-Feb-18 18:30N 34°38' E 135°28'0 0.0
2018-Feb-18 18:00N 34°38' E 135°28'0 0.0
2018-Feb-18 17:30N 34°38' E 135°28'0 0.0
2018-Feb-18 17:00N 34°38' E 135°28'0 0.0
2018-Feb-18 16:30N 34°38' E 135°28'0 0.0
2018-Feb-18 16:00N 34°38' E 135°28'0 0.0
2018-Feb-18 15:30N 34°38' E 135°28'0 0.0
2018-Feb-18 15:00N 34°38' E 135°28'0 0.0
2018-Feb-18 14:30N 34°38' E 135°28'0 0.0
2018-Feb-18 14:00N 34°38' E 135°28'0 0.0
2018-Feb-18 13:30N 34°38' E 135°28'0 0.0
2018-Feb-18 13:00N 34°38' E 135°28'0 0.0
2018-Feb-18 12:30N 34°38' E 135°28'0 0.0
2018-Feb-18 12:00N 34°38' E 135°28'0 0.0
2018-Feb-18 11:30N 34°38' E 135°28'0 0.0
2018-Feb-18 11:00N 34°38' E 135°28'0 0.0
2018-Feb-18 10:30N 34°38' E 135°28'0 0.0
2018-Feb-18 10:00N 34°38' E 135°28'0 0.0
2018-Feb-18 09:30N 34°38' E 135°28'0 0.5
2018-Feb-18 09:00N 34°38' E 135°27'0 0.4
2018-Feb-18 08:29N 34°38' E 135°27'0 0.0
2018-Feb-18 07:59N 34°38' E 135°27'0 0.0
2018-Feb-18 07:29N 34°38' E 135°27'0 0.0
2018-Feb-18 06:59N 34°38' E 135°27'0 0.0
2018-Feb-18 06:29N 34°38' E 135°27'0 0.0
2018-Feb-18 05:59N 34°38' E 135°27'0 0.0
2018-Feb-18 05:29N 34°38' E 135°27'0 0.0
2018-Feb-18 04:59N 34°38' E 135°27'0 0.0
2018-Feb-18 04:29N 34°38' E 135°27'0 0.0
2018-Feb-18 03:59N 34°38' E 135°27'1 1.2
2018-Feb-18 03:28N 34°38' E 135°27'0 0.0
2018-Feb-18 02:58N 34°38' E 135°27'0 0.0
2018-Feb-18 02:28N 34°38' E 135°27'0 0.1
2018-Feb-18 02:00N 34°38' E 135°27'4 8.3
2018-Feb-18 01:30N 34°37' E 135°22'511.0
2018-Feb-18 01:00N 34°36' E 135°16'611.2
2018-Feb-18 00:30N 34°34' E 135°09'510.2
2018-Feb-18 00:00N 34°36' E 135°03'3 6.6
2018-Feb-17 23:30N 34°37' E 134°59'5 8.8
2018-Feb-17 22:59N 34°35' E 134°54'5 9.4
2018-Feb-17 22:30N 34°33' E 134°49'510.7
2018-Feb-17 22:00N 34°31' E 134°43'610.9
2018-Feb-17 21:30N 34°29' E 134°37'511.3
2018-Feb-17 21:00N 34°27' E 134°31'9311.5
2018-Feb-17 12:59N 34°03' E 132°43'1511.9
2018-Feb-17 11:40N 33°54' E 132°28'512.5
2018-Feb-17 11:17N 33°51' E 132°23'412.2
2018-Feb-17 10:57N 33°50' E 132°19'612.1
2018-Feb-17 10:28N 33°49' E 132°12'611.8
2018-Feb-17 09:57N 33°46' E 132°05'1511.0
2018-Feb-17 08:37N 33°47' E 131°48'111.1
2018-Feb-17 08:30N 33°47' E 131°46'611.4
2018-Feb-17 08:00N 33°48' E 131°39'611.6
2018-Feb-17 07:30N 33°49' E 131°33'611.9
2018-Feb-17 07:00N 33°51' E 131°26'612.2
2018-Feb-17 06:30N 33°52' E 131°18'511.0
2018-Feb-17 06:00N 33°55' E 131°13'3 5.5
2018-Feb-17 05:30N 33°57' E 131°14'0 0.0
2018-Feb-17 05:00N 33°57' E 131°14'0 0.0
2018-Feb-17 04:21N 33°57' E 131°14'0 0.0
2018-Feb-17 03:57N 33°57' E 131°14'0 0.0
2018-Feb-17 03:30N 33°57' E 131°14'0 0.0
2018-Feb-17 03:00N 33°57' E 131°14'0 0.0
2018-Feb-17 02:30N 33°57' E 131°14'0 0.0
2018-Feb-17 02:00N 33°57' E 131°14'0 0.0
2018-Feb-17 01:30N 33°57' E 131°14'0 0.0
2018-Feb-17 01:00N 33°57' E 131°14'0 0.0
2018-Feb-17 00:30N 33°57' E 131°14'0 0.0
2018-Feb-17 00:00N 33°57' E 131°14'0 0.0
2018-Feb-16 23:30N 33°57' E 131°14'0 0.0
2018-Feb-16 23:00N 33°57' E 131°14'0 0.0
2018-Feb-16 22:30N 33°57' E 131°14'0 0.0
2018-Feb-16 22:00N 33°57' E 131°14'2 4.0
2018-Feb-16 21:29N 33°55' E 131°13'0 0.1
2018-Feb-16 20:59N 33°55' E 131°13'0 0.0
2018-Feb-16 20:29N 33°55' E 131°13'0 0.1
2018-Feb-16 19:56N 33°55' E 131°13'0 0.1
2018-Feb-16 19:29N 33°55' E 131°13'0 0.1
2018-Feb-16 18:59N 33°55' E 131°13'0 0.1
2018-Feb-16 18:29N 33°55' E 131°13'0 0.0
2018-Feb-16 17:59N 33°55' E 131°13'0 0.1
2018-Feb-16 17:23N 33°55' E 131°13'0 0.1
2018-Feb-16 16:56N 33°55' E 131°13'0 0.1
2018-Feb-16 16:30N 33°55' E 131°13'4 7.6
2018-Feb-16 16:00N 33°55' E 131°08'612.7
2018-Feb-16 15:30N 33°58' E 131°02'510.2
2018-Feb-16 15:00N 33°56' E 130°56'4 7.1
2018-Feb-16 14:30N 33°56' E 130°52'611.5
2018-Feb-16 14:00N 33°58' E 130°45'612.6
2018-Feb-16 13:30N 33°57' E 130°38'612.6
2018-Feb-16 13:00N 33°56' E 130°30'611.7
2018-Feb-16 12:30N 33°51' E 130°26'612.8
2018-Feb-16 12:00N 33°47' E 130°21'612.3
2018-Feb-16 11:29N 33°42' E 130°16'611.6
2018-Feb-16 11:00N 33°38' E 130°21'2 4.7
2018-Feb-16 10:29N 33°36' E 130°23'0 0.0
2018-Feb-16 09:59N 33°36' E 130°23'0 0.0
2018-Feb-16 09:29N 33°36' E 130°23'0 0.0
2018-Feb-16 08:59N 33°36' E 130°23'0 0.0
2018-Feb-16 08:28N 33°36' E 130°23'0 0.0
2018-Feb-16 07:56N 33°36' E 130°23'0 0.0
2018-Feb-16 07:29N 33°36' E 130°23'0 0.0
2018-Feb-16 06:59N 33°36' E 130°23'0 0.0
2018-Feb-16 06:29N 33°36' E 130°23'0 0.0
2018-Feb-16 05:59N 33°36' E 130°23'0 0.0
2018-Feb-16 05:29N 33°36' E 130°23'0 0.0
2018-Feb-16 04:53N 33°36' E 130°23'0 0.0
2018-Feb-16 04:28N 33°36' E 130°23'0 0.0
2018-Feb-16 03:58N 33°36' E 130°23'0 0.0
2018-Feb-16 03:28N 33°36' E 130°23'0 0.0
2018-Feb-16 02:58N 33°36' E 130°23'0 0.0
2018-Feb-16 02:28N 33°36' E 130°23'0 0.0
2018-Feb-16 01:58N 33°36' E 130°23'0 0.0
2018-Feb-16 01:28N 33°36' E 130°23'0 0.0
2018-Feb-16 00:58N 33°36' E 130°23'0 0.0
2018-Feb-16 00:28N 33°36' E 130°23'0 0.0
2018-Feb-15 23:58N 33°36' E 130°23'0 0.0
2018-Feb-15 23:28N 33°36' E 130°23'0 0.0
2018-Feb-15 22:58N 33°36' E 130°23'0 0.0
2018-Feb-15 22:28N 33°36' E 130°23'0 0.0
2018-Feb-15 21:58N 33°36' E 130°23'0 0.0
2018-Feb-15 21:25N 33°36' E 130°23'0 0.0
2018-Feb-15 20:59N 33°36' E 130°23'0 0.0
2018-Feb-15 20:29N 33°36' E 130°23'0 0.0
2018-Feb-15 19:58N 33°36' E 130°23'0 0.0
2018-Feb-15 19:28N 33°36' E 130°23'0 0.0
2018-Feb-15 18:58N 33°36' E 130°23'0 0.0
2018-Feb-15 18:28N 33°36' E 130°23'0 0.0
2018-Feb-15 18:01N 33°36' E 130°23'3 6.6
2018-Feb-15 17:31N 33°38' E 130°20'510.2
2018-Feb-15 17:00N 33°42' E 130°16'611.2
2018-Feb-15 16:30N 33°46' E 130°20'611.5
2018-Feb-15 16:00N 33°51' E 130°24'511.0
2018-Feb-15 15:31N 33°55' E 130°29'611.4
2018-Feb-15 15:01N 33°57' E 130°35'611.4
2018-Feb-15 14:30N 33°58' E 130°42'611.4
2018-Feb-15 14:00N 33°58' E 130°49'611.8
2018-Feb-15 13:31N 33°54' E 130°55'612.3
2018-Feb-15 13:01N 33°59' E 130°60'611.4
2018-Feb-15 12:30N 33°56' E 131°06'611.6
2018-Feb-15 12:00N 33°53' E 131°12'611.8
2018-Feb-15 11:31N 33°52' E 131°19'611.7
2018-Feb-15 11:00N 33°51' E 131°26'611.6
2018-Feb-15 10:30N 33°50' E 131°33'611.7
2018-Feb-15 10:00N 33°49' E 131°40'711.7
2018-Feb-15 09:22N 33°47' E 131°48'1111.2
2018-Feb-15 08:24N 33°46' E 132°01'1111.4
2018-Feb-15 07:25N 33°50' E 132°14'1611.3
2018-Feb-15 05:57N 33°57' E 132°32'612.4
2018-Feb-15 05:30N 34°01' E 132°37'8911.5
2018-Feb-14 21:46N 34°25' E 134°20'312.2
2018-Feb-14 21:30N 34°26' E 134°23'612.0
2018-Feb-14 21:00N 34°28' E 134°30'611.8
2018-Feb-14 20:30N 34°31' E 134°37'611.7
2018-Feb-14 20:00N 34°33' E 134°44'611.5
2018-Feb-14 19:30N 34°35' E 134°50'611.3
2018-Feb-14 19:00N 34°37' E 134°56'5 9.2
2018-Feb-14 18:30N 34°37' E 135°02'5 9.9
2018-Feb-14 18:00N 34°37' E 135°08'611.3
2018-Feb-14 17:30N 34°37' E 135°15'611.5
2018-Feb-14 17:00N 34°39' E 135°22'5 9.5
2018-Feb-14 16:30N 34°38' E 135°27'0 0.7
2018-Feb-14 15:59N 34°38' E 135°28'0 0.0
2018-Feb-14 15:29N 34°38' E 135°28'0 0.0
2018-Feb-14 14:56N 34°38' E 135°28'0 0.0
2018-Feb-14 14:29N 34°38' E 135°28'0 0.0
2018-Feb-14 13:59N 34°38' E 135°28'0 0.0
2018-Feb-14 13:29N 34°38' E 135°28'0 0.0
2018-Feb-14 12:59N 34°38' E 135°28'0 0.0
2018-Feb-14 12:29N 34°38' E 135°28'0 0.0
2018-Feb-14 11:59N 34°38' E 135°28'0 0.0
2018-Feb-14 11:29N 34°38' E 135°28'0 0.0
2018-Feb-14 10:53N 34°38' E 135°28'0 0.0
2018-Feb-14 10:29N 34°38' E 135°28'0 0.0
2018-Feb-14 09:59N 34°38' E 135°28'0 0.0
2018-Feb-14 09:29N 34°38' E 135°28'0 0.0
2018-Feb-14 08:59N 34°38' E 135°28'0 0.0
2018-Feb-14 08:29N 34°38' E 135°28'0 0.0
2018-Feb-14 07:59N 34°38' E 135°28'0 0.0
2018-Feb-14 07:29N 34°38' E 135°28'0 0.0
2018-Feb-14 06:59N 34°38' E 135°28'0 0.0
2018-Feb-14 06:29N 34°38' E 135°28'0 0.0
2018-Feb-14 05:59N 34°38' E 135°28'0 0.0
2018-Feb-14 05:29N 34°38' E 135°28'0 0.0
2018-Feb-14 04:59N 34°38' E 135°28'0 0.0
2018-Feb-14 04:29N 34°38' E 135°28'0 0.0
2018-Feb-14 03:59N 34°38' E 135°28'0 0.0
2018-Feb-14 03:29N 34°38' E 135°28'0 0.0
2018-Feb-14 02:59N 34°38' E 135°28'0 0.3
2018-Feb-14 02:30N 34°38' E 135°27'4 8.5
2018-Feb-14 02:00N 34°38' E 135°22'612.1
2018-Feb-14 01:30N 34°33' E 135°18'612.4
2018-Feb-14 01:00N 34°28' E 135°13'612.5
2018-Feb-14 00:31N 34°23' E 135°08'612.2
2018-Feb-14 00:00N 34°18' E 135°04'612.2
2018-Feb-13 23:30N 34°12' E 135°03'612.5
2018-Feb-13 23:00N 34°06' E 135°02'612.4
2018-Feb-13 22:30N 33°60' E 135°02'101 7.8
2018-Feb-13 09:32N 34°36' E 136°57'312.7
2018-Feb-13 09:19N 34°37' E 136°54'412.6
2018-Feb-13 09:00N 34°40' E 136°50'612.5
2018-Feb-13 08:30N 34°45' E 136°47'612.3
2018-Feb-13 08:01N 34°51' E 136°46'611.8
2018-Feb-13 07:30N 34°57' E 136°47'611.9
2018-Feb-13 07:00N 35°02' E 136°51'2 3.3
2018-Feb-13 06:30N 35°04' E 136°52'0 0.0
2018-Feb-13 05:57N 35°04' E 136°52'0 0.0
2018-Feb-13 05:30N 35°04' E 136°52'0 0.0
2018-Feb-13 05:00N 35°04' E 136°52'0 0.1
2018-Feb-13 04:30N 35°04' E 136°52'0 0.1
2018-Feb-13 04:00N 35°04' E 136°52'0 0.1
2018-Feb-13 03:30N 35°04' E 136°52'0 0.1
2018-Feb-13 03:00N 35°04' E 136°52'0 0.0
2018-Feb-13 02:30N 35°04' E 136°52'0 0.0
2018-Feb-13 02:00N 35°04' E 136°52'2 3.9
2018-Feb-13 01:30N 35°02' E 136°51'2 3.6
2018-Feb-13 01:00N 35°03' E 136°50'0 0.0
2018-Feb-13 00:30N 35°03' E 136°50'0 0.0
2018-Feb-13 00:00N 35°03' E 136°50'0 0.0
2018-Feb-12 23:30N 35°03' E 136°50'0 0.0
2018-Feb-12 23:00N 35°03' E 136°50'1 1.3
2018-Feb-12 22:30N 35°03' E 136°50'3 5.9
2018-Feb-12 22:00N 35°05' E 136°52'0 0.3
2018-Feb-12 21:29N 35°05' E 136°52'0 0.0
2018-Feb-12 20:59N 35°05' E 136°52'0 0.0
2018-Feb-12 20:29N 35°05' E 136°52'0 0.0
2018-Feb-12 19:56N 35°05' E 136°52'0 0.0
2018-Feb-12 19:26N 35°05' E 136°52'0 0.0
2018-Feb-12 18:59N 35°05' E 136°52'0 0.0
2018-Feb-12 18:29N 35°05' E 136°52'0 0.0
2018-Feb-12 17:59N 35°05' E 136°52'0 0.0
2018-Feb-12 17:26N 35°05' E 136°52'0 0.0
2018-Feb-12 16:56N 35°05' E 136°52'0 0.0
2018-Feb-12 16:29N 35°05' E 136°52'0 0.0
2018-Feb-12 15:59N 35°05' E 136°52'0 0.0
2018-Feb-12 15:14N 35°05' E 136°52'0 0.0
2018-Feb-12 14:59N 35°05' E 136°52'0 0.0
2018-Feb-12 14:29N 35°05' E 136°52'0 0.0
2018-Feb-12 13:59N 35°05' E 136°52'0 0.0
2018-Feb-12 13:29N 35°05' E 136°52'0 0.0
2018-Feb-12 12:59N 35°05' E 136°52'0 0.0
2018-Feb-12 12:26N 35°05' E 136°52'0 0.0
2018-Feb-12 11:56N 35°05' E 136°52'0 0.0
2018-Feb-12 11:29N 35°05' E 136°52'0 0.0
2018-Feb-12 10:59N 35°05' E 136°52'0 0.0
2018-Feb-12 10:29N 35°05' E 136°52'0 0.0
2018-Feb-12 09:56N 35°05' E 136°52'0 0.0
2018-Feb-12 09:29N 35°05' E 136°52'0 0.0
2018-Feb-12 08:59N 35°05' E 136°52'0 0.0
2018-Feb-12 08:26N 35°05' E 136°52'0 0.0
2018-Feb-12 07:56N 35°05' E 136°52'0 0.0
2018-Feb-12 07:26N 35°05' E 136°52'0 0.0
2018-Feb-12 06:56N 35°05' E 136°52'0 0.0
2018-Feb-12 06:29N 35°05' E 136°52'0 0.0
2018-Feb-12 05:56N 35°05' E 136°52'0 0.0
2018-Feb-12 05:29N 35°05' E 136°52'0 0.0
2018-Feb-12 04:59N 35°05' E 136°52'0 0.0
2018-Feb-12 04:26N 35°05' E 136°52'0 0.0
2018-Feb-12 03:59N 35°05' E 136°52'0 0.0
2018-Feb-12 03:29N 35°05' E 136°52'0 0.0
2018-Feb-12 02:59N 35°05' E 136°52'0 0.0
2018-Feb-12 02:26N 35°05' E 136°52'0 0.0
2018-Feb-12 01:59N 35°05' E 136°52'0 0.0
2018-Feb-12 01:26N 35°05' E 136°52'0 0.0
2018-Feb-12 00:59N 35°05' E 136°52'0 0.0
2018-Feb-12 00:29N 35°05' E 136°52'0 0.0
2018-Feb-11 23:59N 35°05' E 136°52'0 0.0
2018-Feb-11 23:26N 35°05' E 136°52'0 0.1
2018-Feb-11 23:00N 35°05' E 136°52'1 1.1
2018-Feb-11 22:30N 35°05' E 136°53'0 0.0
2018-Feb-11 22:00N 35°05' E 136°53'0 0.1
2018-Feb-11 21:30N 35°05' E 136°53'0 0.1
2018-Feb-11 21:00N 35°05' E 136°52'4 8.9
2018-Feb-11 20:30N 35°01' E 136°50'611.1
2018-Feb-11 20:00N 34°56' E 136°47'510.7
2018-Feb-11 19:30N 34°50' E 136°48'610.6
2018-Feb-11 18:57N 34°45' E 136°50'102 7.5
2018-Feb-11 05:13N 33°49' E 135°06'512.5
2018-Feb-11 04:51N 33°53' E 135°02'412.3
2018-Feb-11 04:31N 33°57' E 135°01'612.2
2018-Feb-11 04:00N 34°03' E 135°00'612.2
2018-Feb-11 03:30N 34°09' E 134°59'612.4
2018-Feb-11 03:00N 34°15' E 134°58'611.7
2018-Feb-11 02:31N 34°21' E 134°60'612.2
2018-Feb-11 02:00N 34°27' E 135°01'612.0
2018-Feb-11 01:30N 34°33' E 135°03'510.3
2018-Feb-11 01:00N 34°37' E 134°59'611.2
2018-Feb-11 00:30N 34°38' E 134°53'5 9.7
2018-Feb-11 00:00N 34°42' E 134°50'0 0.2
2018-Feb-10 23:25N 34°42' E 134°50'0 0.0
2018-Feb-10 22:55N 34°42' E 134°50'  

Dump ship's entire track history